Time;durP1;ratioP1;P1;durP2;ratioP2;P2;SDS_P1;SDS_P2;PMS_P1;PMS_P2;Temp;Humidity;BMP_temperature;BMP_pressure;BME280_temperature;BME280_humidity;BME280_pressure;Samples;Min_cycle;Max_cycle;Signal;HPM_P1;HPM_P2
2022/01/06 00:00:28;;;;;;;33.65;3.03;;;0.00;96.90;;;;;;5153590;27;20103;-79
2022/01/06 00:02:56;;;;;;;48.00;3.90;;;0.00;96.80;;;;;;5157497;27;20028;-78
2022/01/06 00:05:23;;;;;;;34.13;3.42;;;-0.10;96.80;;;;;;5156500;27;20052;-78
2022/01/06 00:07:51;;;;;;;25.60;2.45;;;-0.10;96.80;;;;;;5160100;27;20062;-80
2022/01/06 00:10:17;;;;;;;48.42;3.22;;;-0.10;96.80;;;;;;5157411;27;20051;-79
2022/01/06 00:15:29;;;;;;;15.20;2.42;;;-0.20;96.80;;;;;;5153334;27;20043;-79
2022/01/06 00:23:31;;;;;;;24.58;2.53;;;-0.30;96.80;;;;;;5150806;27;20043;-78
2022/01/06 00:25:59;;;;;;;30.85;3.15;;;-0.30;96.80;;;;;;5153716;27;20889;-79
2022/01/06 00:28:29;;;;;;;28.58;3.08;;;-0.30;96.80;;;;;;5151048;27;20049;-78
2022/01/06 00:30:56;;;;;;;32.15;3.15;;;-0.40;96.70;;;;;;5152787;27;20075;-79
2022/01/06 00:33:23;;;;;;;28.52;2.90;;;-0.40;96.80;;;;;;5153341;27;20107;-78
2022/01/06 00:35:51;;;;;;;40.72;3.67;;;-0.40;96.90;;;;;;5154633;27;20134;-77
2022/01/06 00:38:22;;;;;;;31.98;3.20;;;-0.40;96.90;;;;;;5151441;27;20058;-78
2022/01/06 00:40:48;;;;;;;28.23;2.80;;;-0.40;96.90;;;;;;5150035;27;20039;-78
2022/01/06 00:43:18;;;;;;;29.30;2.45;;;-0.40;96.90;;;;;;5153327;27;20055;-78
2022/01/06 00:45:45;;;;;;;34.03;2.75;;;-0.40;97.00;;;;;;5150774;27;20046;-78
2022/01/06 00:48:12;;;;;;;26.23;2.58;;;-0.40;97.00;;;;;;5150925;27;20915;-78
2022/01/06 00:50:42;;;;;;;29.85;3.20;;;-0.30;97.00;;;;;;5149445;27;20968;-78
2022/01/06 00:53:08;;;;;;;42.58;3.45;;;-0.30;97.00;;;;;;5151230;27;20057;-78
2022/01/06 00:55:37;;;;;;;31.60;2.70;;;-0.30;97.00;;;;;;5152190;27;20051;-79
2022/01/06 00:58:04;;;;;;;36.38;3.08;;;-0.30;97.10;;;;;;5150442;27;20069;-79
2022/01/06 01:00:39;;;;;;;26.40;2.55;;;-0.30;97.10;;;;;;5152010;27;20031;-78
2022/01/06 01:03:19;;;;;;;33.70;2.47;;;-0.30;97.10;;;;;;5147951;27;20082;-80
2022/01/06 01:05:48;;;;;;;40.35;2.67;;;-0.30;97.10;;;;;;5150126;27;20167;-76
2022/01/06 01:08:17;;;;;;;40.72;2.40;;;-0.30;97.10;;;;;;5150878;27;20961;-78
2022/01/06 01:10:45;;;;;;;34.92;2.72;;;-0.30;97.00;;;;;;5150470;27;20131;-76
2022/01/06 01:13:13;;;;;;;39.75;2.95;;;-0.30;97.10;;;;;;5152065;27;20059;-78
2022/01/06 01:15:49;;;;;;;21.17;2.70;;;-0.30;97.10;;;;;;5150044;27;20108;-77
2022/01/06 01:18:19;;;;;;;22.25;2.72;;;-0.30;97.10;;;;;;5150636;27;20055;-79
2022/01/06 01:20:46;;;;;;;32.63;3.20;;;-0.40;97.00;;;;;;5151627;27;20436;-76
2022/01/06 01:23:14;;;;;;;22.00;2.33;;;-0.40;97.00;;;;;;5151707;27;20027;-76
2022/01/06 01:25:41;;;;;;;22.33;2.78;;;-0.30;97.10;;;;;;5152262;27;20036;-76
2022/01/06 01:28:10;;;;;;;32.53;2.65;;;-0.40;97.10;;;;;;5152467;27;20067;-76
2022/01/06 01:33:24;;;;;;;28.23;2.85;;;-0.40;97.10;;;;;;5147404;27;20051;-78
2022/01/06 01:35:51;;;;;;;40.17;2.45;;;-0.40;97.10;;;;;;5148305;27;20069;-77
2022/01/06 01:38:18;;;;;;;30.20;3.00;;;-0.40;97.10;;;;;;5145747;27;20113;-77
2022/01/06 01:40:44;;;;;;;30.05;3.03;;;-0.40;97.00;;;;;;5147547;27;20146;-76
2022/01/06 01:43:11;;;;;;;36.05;3.08;;;-0.40;97.20;;;;;;5148894;27;20057;-77
2022/01/06 01:45:45;;;;;;;31.83;2.47;;;-0.40;97.10;;;;;;5151795;27;20052;-77
2022/01/06 01:48:20;;;;;;;21.30;2.20;;;-0.40;97.20;;;;;;5150571;27;20055;-76
2022/01/06 01:50:47;;;;;;;26.30;2.13;;;-0.40;97.20;;;;;;5147332;27;20055;-77
2022/01/06 01:53:14;;;;;;;32.80;1.92;;;-0.40;97.20;;;;;;5146517;27;20530;-77
2022/01/06 01:55:43;;;;;;;24.58;2.10;;;-0.40;97.20;;;;;;5145194;27;20043;-76
2022/01/06 01:58:11;;;;;;;31.95;2.45;;;-0.40;97.20;;;;;;5145356;27;20104;-76
2022/01/06 02:00:41;;;;;;;27.67;2.13;;;-0.40;97.20;;;;;;5145662;27;20055;-76
2022/01/06 02:03:07;;;;;;;29.63;2.38;;;-0.40;97.20;;;;;;5149027;27;20133;-78
2022/01/06 02:05:34;;;;;;;22.27;2.30;;;-0.30;97.30;;;;;;5147274;27;20059;-78
2022/01/06 02:08:02;;;;;;;32.10;2.63;;;-0.30;97.30;;;;;;5145780;27;20132;-76
2022/01/06 02:10:29;;;;;;;31.73;2.33;;;-0.30;97.20;;;;;;5146934;27;20099;-79
2022/01/06 02:13:01;;;;;;;37.67;3.60;;;-0.30;97.30;;;;;;5148841;27;20514;-77
2022/01/06 02:15:28;;;;;;;29.30;2.10;;;-0.30;97.30;;;;;;5147493;27;20526;-77
2022/01/06 02:18:02;;;;;;;30.15;2.55;;;-0.30;97.30;;;;;;5150713;27;20134;-78
2022/01/06 02:20:30;;;;;;;27.35;2.22;;;-0.30;97.30;;;;;;5149131;27;20082;-77
2022/01/06 02:23:02;;;;;;;17.63;2.55;;;-0.30;97.20;;;;;;5149151;27;20099;-77
2022/01/06 02:25:31;;;;;;;20.05;1.92;;;-0.20;97.30;;;;;;5145695;27;20049;-76
2022/01/06 02:28:02;;;;;;;15.38;2.13;;;-0.20;97.30;;;;;;5145512;27;20078;-78
2022/01/06 02:30:32;;;;;;;33.65;3.00;;;-0.20;97.40;;;;;;5148586;27;20043;-76
2022/01/06 02:33:01;;;;;;;20.85;2.78;;;-0.20;97.40;;;;;;5147299;27;20032;-77
2022/01/06 02:35:28;;;;;;;28.77;2.30;;;-0.10;97.40;;;;;;5148029;27;20387;-77
2022/01/06 02:37:55;;;;;;;22.05;1.88;;;-0.10;97.40;;;;;;5149406;27;20906;-78
2022/01/06 02:40:26;;;;;;;37.72;2.95;;;-0.10;97.30;;;;;;5148486;27;20860;-77
2022/01/06 02:42:55;;;;;;;27.33;2.53;;;-0.20;97.30;;;;;;5147311;27;20819;-77
2022/01/06 02:45:28;;;;;;;23.15;2.30;;;-0.20;97.30;;;;;;5150285;27;20050;-77
2022/01/06 02:47:56;;;;;;;30.38;2.15;;;-0.20;97.30;;;;;;5149460;27;20079;-79
2022/01/06 02:50:24;;;;;;;22.50;2.92;;;-0.20;97.30;;;;;;5152346;27;20058;-77
2022/01/06 02:52:53;;;;;;;17.50;1.92;;;-0.20;97.30;;;;;;5152918;27;20050;-78
2022/01/06 02:55:20;;;;;;;17.35;2.17;;;-0.20;97.30;;;;;;5151612;27;20048;-78
2022/01/06 02:57:47;;;;;;;29.15;2.67;;;-0.20;97.20;;;;;;5153581;27;20039;-76
2022/01/06 03:00:17;;;;;;;30.50;2.80;;;-0.20;97.20;;;;;;5133670;27;20050;-77
2022/01/06 03:02:46;;;;;;;19.05;2.15;;;-0.30;97.20;;;;;;5125029;27;20030;-76
2022/01/06 03:05:15;;;;;;;28.30;2.20;;;-0.30;97.10;;;;;;5124489;27;20044;-77
2022/01/06 03:07:42;;;;;;;20.40;2.13;;;-0.30;97.20;;;;;;5126743;27;20067;-77
2022/01/06 03:10:12;;;;;;;30.67;2.83;;;-0.20;97.20;;;;;;5127963;27;20051;-76
2022/01/06 03:12:39;;;;;;;25.25;2.10;;;-0.30;97.20;;;;;;5128828;27;20069;-76
2022/01/06 03:15:07;;;;;;;23.02;2.25;;;-0.20;97.30;;;;;;5124693;27;20047;-76
2022/01/06 03:17:36;;;;;;;15.68;2.00;;;-0.20;97.20;;;;;;5123664;27;20066;-76
2022/01/06 03:20:06;;;;;;;29.90;2.40;;;-0.30;97.20;;;;;;5125186;27;20048;-75
2022/01/06 03:22:32;;;;;;;30.60;2.60;;;-0.30;97.20;;;;;;5124888;27;20214;-76
2022/01/06 03:25:00;;;;;;;16.67;2.17;;;-0.30;97.20;;;;;;5126814;27;20496;-76
2022/01/06 03:27:27;;;;;;;32.65;2.53;;;-0.30;97.20;;;;;;5124384;27;20044;-75
2022/01/06 03:29:56;;;;;;;27.13;2.45;;;-0.30;97.20;;;;;;5123442;27;20875;-76
2022/01/06 03:32:25;;;;;;;33.33;2.17;;;-0.30;97.20;;;;;;5122709;27;20060;-76
2022/01/06 03:34:52;;;;;;;18.67;1.52;;;-0.40;97.10;;;;;;5122084;27;20048;-76
2022/01/06 03:37:18;;;;;;;16.63;2.13;;;-0.40;97.10;;;;;;5125618;27;20486;-75
2022/01/06 03:39:45;;;;;;;17.30;1.60;;;-0.40;97.10;;;;;;5124174;27;20407;-77
2022/01/06 03:42:12;;;;;;;25.73;2.38;;;-0.50;97.10;;;;;;5123556;27;20139;-77
2022/01/06 03:44:39;;;;;;;13.77;2.00;;;-0.50;97.20;;;;;;5126713;27;20058;-77
2022/01/06 03:47:07;;;;;;;20.95;2.53;;;-0.50;97.10;;;;;;5126255;27;20054;-76
2022/01/06 03:49:33;;;;;;;26.48;2.50;;;-0.50;97.20;;;;;;5125933;27;20036;-77
2022/01/06 03:52:00;;;;;;;27.20;2.13;;;-0.50;97.30;;;;;;5126639;27;20047;-76
2022/01/06 03:54:27;;;;;;;28.10;2.20;;;-0.40;97.30;;;;;;5126774;27;20050;-75
2022/01/06 03:56:54;;;;;;;17.20;1.65;;;-0.50;97.40;;;;;;5122502;27;20551;-76
2022/01/06 03:59:21;;;;;;;31.13;2.30;;;-0.50;97.30;;;;;;5135619;27;20935;-77
2022/01/06 04:01:47;;;;;;;23.55;1.70;;;-0.50;97.40;;;;;;5145178;27;20066;-77
2022/01/06 04:04:15;;;;;;;23.20;2.33;;;-0.50;97.40;;;;;;5147497;27;20066;-76
2022/01/06 04:06:44;;;;;;;27.17;2.03;;;-0.50;97.40;;;;;;5143879;27;20736;-77
2022/01/06 04:09:11;;;;;;;12.70;1.65;;;-0.50;97.40;;;;;;5146336;27;20101;-76
2022/01/06 04:11:45;;;;;;;18.08;1.60;;;-0.60;97.40;;;;;;5143581;27;20043;-77
2022/01/06 04:14:12;;;;;;;31.35;2.25;;;-0.60;97.40;;;;;;5146967;27;20046;-76
2022/01/06 04:16:40;;;;;;;27.02;1.95;;;-0.60;97.30;;;;;;5145081;27;20044;-76
2022/01/06 04:19:08;;;;;;;19.88;1.65;;;-0.60;97.40;;;;;;5147525;27;20073;-76
2022/01/06 04:21:34;;;;;;;22.63;2.05;;;-0.70;97.40;;;;;;5144827;27;20048;-76
2022/01/06 04:24:02;;;;;;;31.08;2.20;;;-0.60;97.40;;;;;;5146873;27;20043;-75
2022/01/06 04:26:31;;;;;;;19.17;1.70;;;-0.70;97.40;;;;;;5149585;27;20142;-75
2022/01/06 04:29:01;;;;;;;20.50;1.63;;;-0.70;97.40;;;;;;5151150;27;20058;-76
2022/01/06 04:31:27;;;;;;;36.83;2.38;;;-0.70;97.40;;;;;;5148381;27;20087;-79
2022/01/06 04:33:54;;;;;;;20.40;1.98;;;-0.70;97.40;;;;;;5150290;27;20051;-75
2022/01/06 04:36:21;;;;;;;29.17;2.58;;;-0.70;97.30;;;;;;5154484;27;20927;-77
2022/01/06 04:38:48;;;;;;;9.70;1.42;;;-0.80;97.40;;;;;;5151463;27;20054;-76
2022/01/06 04:41:14;;;;;;;15.88;1.63;;;-0.80;97.30;;;;;;5150849;27;20047;-76
2022/01/06 04:43:41;;;;;;;17.67;1.98;;;-0.90;97.30;;;;;;5149397;27;20103;-75
2022/01/06 04:46:08;;;;;;;14.30;1.58;;;-0.90;97.30;;;;;;5149478;27;20139;-75
2022/01/06 04:48:37;;;;;;;20.02;1.67;;;-0.90;97.30;;;;;;5151542;27;20493;-76
2022/01/06 04:51:04;;;;;;;22.95;2.03;;;-0.90;97.40;;;;;;5150939;27;20043;-77
2022/01/06 04:53:31;;;;;;;14.68;1.70;;;-1.00;97.30;;;;;;5147973;27;20055;-75
2022/01/06 04:55:59;;;;;;;14.57;1.80;;;-1.00;97.30;;;;;;5150044;27;20039;-76
2022/01/06 04:58:27;;;;;;;18.52;1.60;;;-1.00;97.30;;;;;;5147717;27;20124;-76
2022/01/06 05:00:56;;;;;;;31.95;2.00;;;-1.00;97.30;;;;;;5148061;27;20155;-76
2022/01/06 05:03:23;;;;;;;35.67;2.15;;;-1.00;97.30;;;;;;5150370;27;20115;-77
2022/01/06 05:05:49;;;;;;;29.95;3.90;;;-1.00;97.30;;;;;;5151184;27;20054;-76
2022/01/06 05:08:16;;;;;;;18.40;1.90;;;-1.00;97.40;;;;;;5152826;27;20138;-76
2022/01/06 05:10:43;;;;;;;41.60;2.88;;;-0.90;97.40;;;;;;5151324;27;20027;-76
2022/01/06 05:13:09;;;;;;;28.77;2.10;;;-0.90;97.50;;;;;;5153531;27;20107;-76
2022/01/06 05:15:38;;;;;;;26.63;1.90;;;-0.90;97.50;;;;;;5155516;27;20055;-76
2022/01/06 05:18:04;;;;;;;18.52;1.70;;;-0.90;97.60;;;;;;5157696;27;20047;-77
2022/01/06 05:20:31;;;;;;;20.52;1.83;;;-0.90;97.60;;;;;;5158196;27;20028;-77
2022/01/06 05:23:01;;;;;;;30.55;2.20;;;-1.00;97.60;;;;;;5156158;27;20043;-77
2022/01/06 05:25:32;;;;;;;29.08;2.25;;;-1.00;97.60;;;;;;5154455;27;20094;-76
2022/01/06 05:28:01;;;;;;;19.95;1.90;;;-1.00;97.60;;;;;;5155054;27;20150;-76
2022/01/06 05:30:31;;;;;;;25.92;2.00;;;-1.00;97.60;;;;;;5156079;27;20086;-76
2022/01/06 05:33:04;;;;;;;30.58;2.22;;;-1.00;97.60;;;;;;5153546;27;20047;-76
2022/01/06 05:35:31;;;;;;;14.93;1.97;;;-1.00;97.70;;;;;;5159322;27;20103;-77
2022/01/06 05:37:57;;;;;;;25.20;2.65;;;-1.00;97.70;;;;;;5159188;27;20067;-76
2022/01/06 05:40:24;;;;;;;20.45;2.72;;;-1.00;97.70;;;;;;5159783;27;20086;-77
2022/01/06 05:42:51;;;;;;;32.28;2.55;;;-1.00;97.70;;;;;;5157279;27;20039;-77
2022/01/06 05:45:18;;;;;;;23.05;2.47;;;-0.90;97.70;;;;;;5159226;27;20058;-76
2022/01/06 05:47:45;;;;;;;27.98;2.65;;;-0.90;97.80;;;;;;5157984;27;20043;-76
2022/01/06 05:50:12;;;;;;;43.75;3.22;;;-0.90;97.80;;;;;;5161500;27;20019;-76
2022/01/06 05:52:38;;;;;;;29.42;2.92;;;-0.90;97.70;;;;;;5157873;27;20047;-77
2022/01/06 05:55:05;;;;;;;33.30;3.20;;;-0.80;97.80;;;;;;5158823;27;20999;-76
2022/01/06 05:57:32;;;;;;;22.55;2.30;;;-0.80;97.80;;;;;;5157863;27;20073;-77
2022/01/06 05:59:59;;;;;;;32.72;2.92;;;-0.80;97.80;;;;;;5158327;27;20051;-77
2022/01/06 06:02:26;;;;;;;31.88;2.05;;;-0.80;97.70;;;;;;5157501;27;20050;-76
2022/01/06 06:04:53;;;;;;;22.33;2.40;;;-0.90;97.70;;;;;;5155869;27;20071;-76
2022/01/06 06:07:20;;;;;;;20.27;1.90;;;-0.90;97.80;;;;;;5153193;27;20043;-76
2022/01/06 06:09:47;;;;;;;40.72;3.05;;;-0.90;97.70;;;;;;5154832;27;20036;-76
2022/01/06 06:12:14;;;;;;;22.88;2.13;;;-0.90;97.70;;;;;;5152978;27;20138;-76
2022/01/06 06:14:43;;;;;;;38.75;2.63;;;-0.90;97.70;;;;;;5153341;27;20040;-75
2022/01/06 06:17:10;;;;;;;26.73;2.35;;;-0.90;97.70;;;;;;5149622;27;20098;-76
2022/01/06 06:19:36;;;;;;;26.63;2.70;;;-0.90;97.70;;;;;;5149886;27;20044;-76
2022/01/06 06:22:03;;;;;;;19.02;1.98;;;-0.90;97.70;;;;;;5153007;27;20036;-75
2022/01/06 06:24:30;;;;;;;32.45;2.70;;;-0.90;97.70;;;;;;5150621;27;20074;-76
2022/01/06 06:26:56;;;;;;;23.90;2.53;;;-0.90;97.70;;;;;;5152372;27;20104;-77
2022/01/06 06:29:25;;;;;;;31.35;3.28;;;-0.90;97.60;;;;;;5149088;27;20117;-74
2022/01/06 06:31:52;;;;;;;35.95;2.75;;;-0.90;97.60;;;;;;5145131;27;20074;-75
2022/01/06 06:34:19;;;;;;;27.10;2.83;;;-0.90;97.70;;;;;;5145965;27;20048;-75
2022/01/06 06:36:45;;;;;;;29.58;2.83;;;-0.90;97.60;;;;;;5149235;27;20039;-76
2022/01/06 06:39:12;;;;;;;36.63;2.70;;;-0.90;97.60;;;;;;5148544;27;21168;-75
2022/01/06 06:41:39;;;;;;;35.42;2.97;;;-0.90;97.70;;;;;;5146644;27;20896;-76
2022/01/06 06:44:05;;;;;;;17.75;2.38;;;-0.90;97.60;;;;;;5149447;27;20110;-77
2022/01/06 06:46:32;;;;;;;24.20;2.60;;;-0.90;97.70;;;;;;5149381;27;21245;-75
2022/01/06 06:48:59;;;;;;;31.15;3.15;;;-1.00;97.60;;;;;;5151662;27;20080;-74
2022/01/06 06:51:26;;;;;;;41.45;2.63;;;-0.90;97.60;;;;;;5148262;27;20050;-74
2022/01/06 06:53:52;;;;;;;39.10;3.67;;;-0.90;97.60;;;;;;5147790;27;20123;-75
2022/01/06 06:56:19;;;;;;;33.13;3.13;;;-1.00;97.60;;;;;;5148099;27;20939;-76
2022/01/06 06:58:46;;;;;;;26.35;2.55;;;-1.00;97.60;;;;;;5149721;27;20059;-76
2022/01/06 07:01:13;;;;;;;39.15;2.88;;;-0.90;97.60;;;;;;5153460;27;20094;-77
2022/01/06 07:03:42;;;;;;;21.75;3.35;;;-1.00;97.60;;;;;;5146882;27;20090;-75
2022/01/06 07:06:10;;;;;;;28.60;2.88;;;-1.00;97.60;;;;;;5148896;27;20070;-76
2022/01/06 07:08:37;;;;;;;29.73;2.55;;;-0.90;97.60;;;;;;5153637;27;20103;-76
2022/01/06 07:11:03;;;;;;;23.60;2.95;;;-0.90;97.70;;;;;;5152323;27;20088;-74
2022/01/06 07:13:30;;;;;;;30.33;3.58;;;-0.90;97.70;;;;;;5152333;27;20046;-76
2022/01/06 07:15:57;;;;;;;30.23;2.55;;;-0.90;97.60;;;;;;5154850;27;20051;-77
2022/01/06 07:18:24;;;;;;;22.77;2.55;;;-0.90;97.70;;;;;;5153770;27;20842;-75
2022/01/06 07:20:53;;;;;;;29.33;3.08;;;-0.90;97.70;;;;;;5156347;27;20054;-76
2022/01/06 07:23:20;;;;;;;16.40;2.20;;;-1.00;97.60;;;;;;5155239;27;20131;-76
2022/01/06 07:25:49;;;;;;;32.80;3.20;;;-0.90;97.60;;;;;;5156555;27;20110;-76
2022/01/06 07:28:16;;;;;;;19.70;2.65;;;-1.00;97.60;;;;;;5158711;27;20031;-77
2022/01/06 07:30:42;;;;;;;51.55;3.28;;;-1.00;97.60;;;;;;5158060;27;20130;-76
2022/01/06 07:33:09;;;;;;;26.80;2.80;;;-1.00;97.60;;;;;;5158226;27;20043;-77
2022/01/06 07:35:36;;;;;;;29.35;2.58;;;-1.00;97.60;;;;;;5157939;27;20044;-77
2022/01/06 07:38:02;;;;;;;25.70;3.20;;;-1.00;97.60;;;;;;5162544;27;20066;-77
2022/01/06 07:40:29;;;;;;;24.20;2.80;;;-1.00;97.60;;;;;;5163838;27;20040;-77
2022/01/06 07:42:56;;;;;;;25.42;2.60;;;-1.00;97.60;;;;;;5161369;27;20868;-76
2022/01/06 07:45:23;;;;;;;25.58;2.90;;;-1.00;97.60;;;;;;5161718;27;20036;-77
2022/01/06 07:47:58;;;;;;;28.60;3.40;;;-1.00;97.50;;;;;;5165606;27;20051;-77
2022/01/06 07:50:28;;;;;;;25.85;2.72;;;-1.00;97.50;;;;;;5162647;27;20043;-78
2022/01/06 07:52:55;;;;;;;28.40;3.40;;;-1.00;97.60;;;;;;5163651;27;20031;-77
2022/01/06 07:55:22;;;;;;;23.67;2.40;;;-1.00;97.50;;;;;;5161119;27;20039;-78
2022/01/06 07:57:50;;;;;;;26.48;3.22;;;-1.00;97.50;;;;;;5161738;27;20088;-78
2022/01/06 08:00:18;;;;;;;24.33;2.72;;;-1.10;97.50;;;;;;5164242;27;20111;-78
2022/01/06 08:02:46;;;;;;;35.28;2.90;;;-1.10;97.50;;;;;;5160837;27;20104;-77
2022/01/06 08:05:15;;;;;;;22.15;2.88;;;-1.10;97.50;;;;;;5167123;27;20039;-78
2022/01/06 08:07:42;;;;;;;19.58;2.42;;;-1.10;97.50;;;;;;5161806;27;20047;-78
2022/01/06 08:10:10;;;;;;;19.05;2.50;;;-1.10;97.50;;;;;;5164724;27;20067;-78
2022/01/06 08:12:37;;;;;;;23.38;2.63;;;-1.00;97.50;;;;;;5164556;27;20044;-78
2022/01/06 08:15:05;;;;;;;33.05;2.90;;;-1.10;97.50;;;;;;5164229;27;20055;-77
2022/01/06 08:17:32;;;;;;;24.83;3.67;;;-1.00;97.50;;;;;;5161688;27;20089;-78
2022/01/06 08:19:59;;;;;;;17.98;2.58;;;-1.00;97.40;;;;;;5163530;27;20038;-76
2022/01/06 08:22:25;;;;;;;24.73;3.47;;;-1.00;97.50;;;;;;5162214;27;20031;-76
2022/01/06 08:24:52;;;;;;;36.35;2.85;;;-1.00;97.50;;;;;;5159438;27;20045;-77
2022/01/06 08:27:19;;;;;;;36.83;3.63;;;-0.90;97.60;;;;;;5162274;27;20033;-78
2022/01/06 08:29:46;;;;;;;25.67;3.03;;;-0.90;97.50;;;;;;5166520;27;20111;-77
2022/01/06 08:32:14;;;;;;;28.45;3.53;;;-0.90;97.50;;;;;;5163383;27;20042;-77
2022/01/06 08:34:41;;;;;;;27.63;3.10;;;-0.90;97.40;;;;;;5164238;27;20104;-78
2022/01/06 08:37:08;;;;;;;59.17;4.60;;;-0.80;97.50;;;;;;5162324;27;20059;-79
2022/01/06 08:39:35;;;;;;;21.42;2.67;;;-0.70;97.50;;;;;;5163438;27;20313;-78
2022/01/06 08:42:04;;;;;;;21.88;3.38;;;-0.70;97.40;;;;;;5158287;27;20029;-78
2022/01/06 08:44:30;;;;;;;18.55;3.35;;;-0.60;97.50;;;;;;5160156;27;20036;-79
2022/01/06 08:46:59;;;;;;;19.55;2.80;;;-0.50;97.50;;;;;;5157286;27;20088;-79
2022/01/06 08:49:27;;;;;;;25.40;3.15;;;-0.40;97.40;;;;;;5151985;27;20047;-78
2022/01/06 08:51:54;;;;;;;20.83;3.38;;;-0.40;97.40;;;;;;5152157;27;20491;-77
2022/01/06 08:54:22;;;;;;;29.73;3.35;;;-0.30;97.40;;;;;;5157164;27;20050;-78
2022/01/06 08:56:49;;;;;;;28.95;4.00;;;-0.20;97.40;;;;;;5154197;27;20899;-79
2022/01/06 08:59:18;;;;;;;19.50;3.10;;;-0.20;97.40;;;;;;5158245;27;20061;-79
2022/01/06 09:01:45;;;;;;;23.42;3.30;;;-0.20;97.30;;;;;;5146478;27;20039;-82
2022/01/06 09:04:12;;;;;;;38.40;4.13;;;-0.10;97.20;;;;;;5148042;27;20064;-81
2022/01/06 09:06:38;;;;;;;32.60;4.30;;;-0.10;97.20;;;;;;5156833;27;20902;-80
2022/01/06 09:09:12;;;;;;;31.42;3.85;;;-0.10;97.10;;;;;;5152194;27;20084;-80
2022/01/06 09:11:39;;;;;;;27.38;3.70;;;-0.10;97.10;;;;;;5153914;27;20044;-79
2022/01/06 09:14:06;;;;;;;25.92;3.72;;;-0.10;97.10;;;;;;5149157;27;20424;-81
2022/01/06 09:16:37;;;;;;;29.00;4.13;;;-0.10;97.10;;;;;;5152959;27;20028;-81
2022/01/06 09:19:04;;;;;;;30.45;4.57;;;0.00;97.00;;;;;;5152187;27;20083;-81
2022/01/06 09:21:36;;;;;;;28.50;3.78;;;0.10;97.10;;;;;;5155787;27;20050;-79
2022/01/06 09:24:06;;;;;;;19.95;3.33;;;0.20;97.10;;;;;;5154124;27;20040;-81
2022/01/06 09:26:34;;;;;;;16.90;3.22;;;0.30;97.10;;;;;;5155837;27;20043;-80
2022/01/06 09:29:06;;;;;;;144.55;13.13;;;0.60;97.20;;;;;;5151976;27;20999;-80
2022/01/06 09:31:36;;;;;;;39.33;5.68;;;1.10;97.20;;;;;;5151412;27;20043;-80
2022/01/06 09:34:08;;;;;;;21.63;4.18;;;1.60;97.40;;;;;;5149933;27;20104;-81
2022/01/06 09:36:37;;;;;;;808.15;58.72;;;1.90;97.30;;;;;;5147163;27;20142;-81
2022/01/06 09:39:07;;;;;;;1937.25;205.30;;;2.40;97.50;;;;;;5146072;27;20073;-81
2022/01/06 09:41:34;;;;;;;1339.20;80.40;;;2.80;97.70;;;;;;5148659;27;20047;-80
2022/01/06 09:44:05;;;;;;;762.42;70.40;;;3.20;97.90;;;;;;5148066;27;20042;-80
2022/01/06 09:46:55;;;;;;;306.77;27.88;;;3.40;97.90;;;;;;5146053;27;20064;-80
2022/01/06 09:49:23;;;;;;;1226.82;86.82;;;3.50;97.90;;;;;;5145287;27;20055;-80
2022/01/06 09:51:55;;;;;;;166.90;13.30;;;3.90;98.10;;;;;;5149619;27;20039;-80
2022/01/06 09:54:21;;;;;;;21.55;3.85;;;4.00;98.00;;;;;;5147544;27;21432;-80
2022/01/06 09:56:48;;;;;;;10.38;3.15;;;4.10;97.70;;;;;;5146804;27;20644;-80
2022/01/06 09:59:15;;;;;;;31.75;4.20;;;4.30;97.40;;;;;;5146052;27;20783;-79
2022/01/06 10:01:42;;;;;;;11.80;2.38;;;4.40;96.50;;;;;;5146831;27;20058;-81
2022/01/06 10:04:24;;;;;;;22.75;6.75;;;4.70;96.40;;;;;;5146058;27;20047;-81
2022/01/06 10:07:07;;;;;;;14.70;3.13;;;4.90;95.20;;;;;;5145291;27;20158;-81
2022/01/06 10:09:35;;;;;;;12.90;3.85;;;5.00;92.50;;;;;;5149097;27;20107;-81
2022/01/06 10:12:08;;;;;;;16.42;3.33;;;5.30;94.00;;;;;;5148958;27;20047;-82
2022/01/06 10:14:43;;;;;;;16.35;3.17;;;5.60;93.00;;;;;;5150568;27;20115;-79
2022/01/06 10:17:11;;;;;;;;;;;5.70;89.90;;;;;;5152129;27;20082;-79
2022/01/06 10:19:40;;;;;;;15.05;5.63;;;5.70;86.60;;;;;;5152171;27;19927;-80
2022/01/06 10:22:18;;;;;;;16.77;2.63;;;5.80;87.70;;;;;;5148933;27;20958;-80
2022/01/06 10:24:47;;;;;;;19.08;2.97;;;5.90;86.40;;;;;;5154721;27;20035;-79
2022/01/06 10:27:16;;;;;;;11.27;2.47;;;5.90;86.50;;;;;;5153456;27;20123;-79
2022/01/06 10:29:48;;;;;;;14.23;3.25;;;6.10;88.20;;;;;;5157411;27;20096;-81
2022/01/06 10:32:19;;;;;;;16.08;3.00;;;6.20;88.30;;;;;;5159898;27;20052;-81
2022/01/06 10:34:50;;;;;;;16.17;2.65;;;6.30;83.90;;;;;;5157875;27;21330;-80
2022/01/06 10:37:34;;;;;;;11.85;2.67;;;6.20;82.70;;;;;;5162912;27;20136;-80
2022/01/06 10:40:27;;;;;;;8.68;2.35;;;6.40;85.70;;;;;;5160769;27;20078;-80
2022/01/06 10:42:57;;;;;;;7.20;1.90;;;6.70;88.90;;;;;;5133150;27;20914;-80
2022/01/06 10:45:29;;;;;;;13.63;2.47;;;6.70;85.80;;;;;;5160191;27;20063;-81
2022/01/06 10:47:58;;;;;;;10.20;2.63;;;6.70;87.60;;;;;;5156016;27;20023;-80
2022/01/06 10:50:28;;;;;;;13.32;3.15;;;6.70;88.30;;;;;;5158075;27;20053;-80
2022/01/06 10:53:02;;;;;;;8.68;2.17;;;6.80;87.10;;;;;;5159451;27;20062;-79
2022/01/06 10:55:34;;;;;;;13.65;2.25;;;6.80;87.00;;;;;;5159461;27;20099;-80
2022/01/06 10:58:05;;;;;;;16.88;2.55;;;6.70;82.80;;;;;;5156554;27;20036;-81
2022/01/06 11:00:35;;;;;;;17.98;3.35;;;6.70;87.20;;;;;;5160329;27;20147;-80
2022/01/06 11:03:08;;;;;;;14.93;2.35;;;6.60;83.80;;;;;;5159641;27;20104;-80
2022/01/06 11:05:37;;;;;;;13.93;2.50;;;6.60;85.80;;;;;;5158549;27;20043;-81
2022/01/06 11:08:05;;;;;;;11.02;2.47;;;6.70;86.10;;;;;;5158759;27;20027;-80
2022/01/06 11:10:35;;;;;;;19.20;2.95;;;6.80;87.20;;;;;;5158629;27;20069;-82
2022/01/06 11:13:07;;;;;;;13.48;2.67;;;6.70;85.80;;;;;;5162156;27;20087;-80
2022/01/06 11:15:34;;;;;;;13.05;2.90;;;6.60;85.40;;;;;;5162469;27;20051;-80
2022/01/06 11:18:01;;;;;;;14.18;3.08;;;6.50;85.60;;;;;;5160064;27;20043;-82
2022/01/06 11:20:29;;;;;;;12.52;2.70;;;6.40;85.60;;;;;;5158271;27;20039;-81
2022/01/06 11:23:02;;;;;;;17.23;3.10;;;6.30;84.80;;;;;;5162288;27;20950;-81
2022/01/06 11:25:34;;;;;;;13.38;2.63;;;6.20;84.30;;;;;;5159983;27;20143;-79
2022/01/06 11:28:09;;;;;;;15.85;3.67;;;6.20;85.20;;;;;;5163684;27;20038;-79
2022/01/06 11:30:45;;;;;;;12.32;2.78;;;6.10;86.00;;;;;;5151529;27;20051;-82
2022/01/06 11:33:13;;;;;;;12.45;2.42;;;6.00;86.30;;;;;;5160253;27;21211;-82
2022/01/06 11:35:57;;;;;;;15.55;2.63;;;6.00;86.40;;;;;;5161844;27;20043;-81
2022/01/06 11:38:26;;;;;;;11.75;2.75;;;5.80;85.90;;;;;;5161520;27;20038;-80
2022/01/06 11:41:13;;;;;;;18.77;2.95;;;5.80;86.80;;;;;;5165197;27;20096;-80
2022/01/06 11:43:46;;;;;;;20.75;2.95;;;5.70;87.70;;;;;;5164964;27;20193;-81
2022/01/06 11:46:13;;;;;;;15.30;3.00;;;5.70;87.90;;;;;;5163887;27;20051;-81
2022/01/06 11:48:50;;;;;;;21.27;3.38;;;5.80;88.50;;;;;;5163418;27;20100;-80
2022/01/06 11:51:33;;;;;;;20.10;3.63;;;5.90;88.50;;;;;;5161782;27;20111;-81
2022/01/06 11:54:18;;;;;;;12.85;2.80;;;5.90;85.40;;;;;;5160892;27;20103;-81
2022/01/06 11:56:52;;;;;;;16.70;4.25;;;6.00;88.00;;;;;;5162913;27;20046;-81
2022/01/06 11:59:33;;;;;;;18.55;2.70;;;6.00;86.80;;;;;;5157537;27;20047;-79
2022/01/06 12:02:03;;;;;;;15.85;3.25;;;5.80;86.50;;;;;;5159903;27;20185;-79
2022/01/06 12:04:32;;;;;;;18.75;2.75;;;5.70;87.10;;;;;;5164874;27;20043;-80
2022/01/06 12:07:09;;;;;;;15.90;3.53;;;5.50;87.10;;;;;;5158727;27;20099;-80
2022/01/06 12:09:36;;;;;;;13.75;2.90;;;5.30;87.30;;;;;;5162819;27;20096;-82
2022/01/06 12:12:07;;;;;;;11.45;2.97;;;5.20;88.90;;;;;;5159745;27;20051;-81
2022/01/06 12:14:34;;;;;;;15.63;2.90;;;5.30;89.20;;;;;;5158785;27;21328;-80
2022/01/06 12:17:11;;;;;;;19.23;2.97;;;5.30;88.10;;;;;;5162554;27;20055;-81
2022/01/06 12:19:38;;;;;;;10.65;2.50;;;5.40;88.50;;;;;;5166428;27;20055;-80
2022/01/06 12:22:10;;;;;;;13.73;2.60;;;5.40;88.20;;;;;;5162013;27;20067;-81
2022/01/06 12:24:37;;;;;;;13.27;2.33;;;5.30;87.90;;;;;;5164358;27;20168;-81
2022/01/06 12:27:05;;;;;;;12.98;2.53;;;5.30;87.80;;;;;;5165635;27;20098;-81
2022/01/06 12:29:39;;;;;;;16.05;2.67;;;5.40;88.50;;;;;;5164013;27;20054;-81
2022/01/06 12:32:11;;;;;;;12.52;2.75;;;5.60;88.70;;;;;;5163371;27;20035;-81
2022/01/06 12:34:39;;;;;;;13.35;2.30;;;5.70;88.60;;;;;;5161608;27;21240;-81
2022/01/06 12:37:07;;;;;;;15.00;2.20;;;5.70;88.10;;;;;;5163973;27;20047;-81
2022/01/06 12:39:33;;;;;;;16.55;2.40;;;5.70;87.20;;;;;;5162568;27;20032;-81
2022/01/06 12:42:03;;;;;;;13.30;2.80;;;5.70;88.20;;;;;;5165289;27;20139;-81
2022/01/06 12:44:33;;;;;;;14.73;2.22;;;5.70;88.80;;;;;;5164434;27;20102;-81
2022/01/06 12:47:04;;;;;;;19.08;2.33;;;5.80;88.30;;;;;;5164424;27;20058;-79
2022/01/06 12:49:31;;;;;;;15.55;2.03;;;5.80;87.30;;;;;;5163818;27;21289;-80
2022/01/06 12:51:58;;;;;;;15.95;2.50;;;5.80;86.90;;;;;;5162772;27;20044;-79
2022/01/06 12:54:25;;;;;;;16.15;2.55;;;5.80;87.60;;;;;;5162704;27;20131;-80
2022/01/06 12:56:57;;;;;;;18.70;2.45;;;5.80;83.00;;;;;;5164623;27;20098;-81
2022/01/06 12:59:33;;;;;;;10.82;3.03;;;5.80;85.50;;;;;;5161553;27;20050;-80